createdAt,value
2023-01-26T00:02:00.321Z,12.87
2023-01-26T00:04:30.905Z,12.77
2023-01-26T00:07:02.185Z,11.50
2023-01-26T00:09:32.971Z,12.63
2023-01-26T00:12:03.565Z,12.70
2023-01-26T00:14:35.637Z,12.47
2023-01-26T00:17:06.158Z,11.53
2023-01-26T00:19:38.109Z,12.70
2023-01-26T00:22:10.704Z,12.53
2023-01-26T00:24:41.078Z,13.13
2023-01-26T00:27:11.560Z,12.33
2023-01-26T00:29:42.181Z,13.50
2023-01-26T00:32:12.665Z,12.43
2023-01-26T00:34:43.230Z,13.33
2023-01-26T00:37:13.579Z,12.00
2023-01-26T00:39:45.037Z,13.73
2023-01-26T00:42:15.980Z,12.70
2023-01-26T00:44:47.830Z,13.27
2023-01-26T00:47:19.257Z,13.63
2023-01-26T00:49:49.675Z,14.07
2023-01-26T00:52:23.032Z,13.13
2023-01-26T00:54:53.520Z,12.90
2023-01-26T00:57:24.185Z,13.00
2023-01-26T00:59:57.056Z,12.67
2023-01-26T01:02:29.198Z,13.37
2023-01-26T01:04:59.802Z,13.63
2023-01-26T01:07:30.286Z,12.70
2023-01-26T01:10:00.982Z,12.83
2023-01-26T01:12:31.536Z,13.37
2023-01-26T01:15:02.122Z,14.27
2023-01-26T01:17:35.226Z,14.00
2023-01-26T01:20:11.117Z,15.43
2023-01-26T01:22:41.917Z,15.27
2023-01-26T01:25:12.604Z,14.90
2023-01-26T01:27:43.058Z,14.43
2023-01-26T01:30:16.541Z,14.63
2023-01-26T01:32:49.772Z,14.23
2023-01-26T01:35:20.524Z,13.77
2023-01-26T01:37:52.639Z,14.10
2023-01-26T01:40:23.145Z,14.57
2023-01-26T01:42:53.660Z,13.67
2023-01-26T01:45:47.021Z,14.27
2023-01-26T01:48:22.158Z,14.77
2023-01-26T01:50:55.915Z,15.07
2023-01-26T01:53:30.779Z,15.33
2023-01-26T01:56:07.011Z,13.93
2023-01-26T01:58:41.706Z,14.67
2023-01-26T02:01:12.348Z,15.33
2023-01-26T02:03:48.228Z,15.03
2023-01-26T02:06:27.545Z,16.43
2023-01-26T02:08:59.020Z,14.87
2023-01-26T02:11:34.110Z,15.40
2023-01-26T02:14:08.711Z,14.10
2023-01-26T02:16:41.497Z,15.93
2023-01-26T02:19:16.658Z,14.90
2023-01-26T02:21:50.658Z,15.30
2023-01-26T02:24:29.904Z,15.47
2023-01-26T02:27:01.685Z,15.50
2023-01-26T02:29:32.619Z,15.00
2023-01-26T02:32:03.139Z,15.00
2023-01-26T02:34:34.771Z,14.97
2023-01-26T02:37:05.639Z,14.40
2023-01-26T02:39:48.188Z,14.77
2023-01-26T02:42:37.691Z,14.50
2023-01-26T02:45:11.864Z,15.17
2023-01-26T02:47:42.759Z,14.37
2023-01-26T02:50:14.583Z,14.37
2023-01-26T02:52:45.361Z,13.83
2023-01-26T02:55:29.713Z,15.00
2023-01-26T02:58:05.577Z,14.77
2023-01-26T03:00:39.921Z,16.13
2023-01-26T03:03:22.432Z,13.90
2023-01-26T03:05:53.730Z,14.83
2023-01-26T03:08:24.337Z,14.07
2023-01-26T03:10:56.551Z,14.63
2023-01-26T03:13:27.136Z,15.30
2023-01-26T03:15:59.338Z,14.97
2023-01-26T03:18:48.882Z,13.83
2023-01-26T03:21:37.811Z,14.37
2023-01-26T03:24:30.997Z,12.17
2023-01-26T03:27:21.576Z,13.47
2023-01-26T03:29:53.534Z,13.77
2023-01-26T03:32:25.319Z,13.43
2023-01-26T03:34:55.864Z,13.43
2023-01-26T03:37:28.132Z,13.17
2023-01-26T03:40:20.250Z,13.60
2023-01-26T03:43:09.165Z,12.93
2023-01-26T03:45:57.590Z,14.47
2023-01-26T03:48:45.999Z,12.00
2023-01-26T03:51:34.556Z,14.63
2023-01-26T03:54:24.096Z,13.73
2023-01-26T03:56:54.922Z,12.90
2023-01-26T03:59:27.098Z,13.83
2023-01-26T04:02:15.734Z,12.57
2023-01-26T04:05:04.470Z,12.37
2023-01-26T04:07:54.930Z,11.27
2023-01-26T04:10:26.381Z,13.07
2023-01-26T04:13:14.875Z,11.53
2023-01-26T04:16:04.895Z,12.40
2023-01-26T04:18:54.042Z,11.53
2023-01-26T04:21:32.324Z,12.47
2023-01-26T04:24:09.199Z,12.30
2023-01-26T04:26:39.587Z,12.40
2023-01-26T04:29:12.897Z,12.07
2023-01-26T04:31:44.100Z,11.90
2023-01-26T04:34:18.440Z,12.53
2023-01-26T04:36:48.889Z,11.63
2023-01-26T04:39:19.475Z,11.23
2023-01-26T04:41:49.943Z,12.03
2023-01-26T04:44:20.487Z,11.30
2023-01-26T04:46:51.032Z,11.70
2023-01-26T04:49:21.656Z,12.37
2023-01-26T04:51:52.525Z,11.20
2023-01-26T04:54:23.037Z,12.50
2023-01-26T04:56:53.747Z,11.93
2023-01-26T04:59:24.649Z,12.20
2023-01-26T05:01:55.211Z,11.10
2023-01-26T05:04:27.643Z,11.23
2023-01-26T05:06:58.199Z,11.47
2023-01-26T05:09:28.746Z,10.40
2023-01-26T05:12:00.872Z,10.90
2023-01-26T05:14:33.026Z,11.10
2023-01-26T05:17:03.851Z,10.93
2023-01-26T05:19:34.429Z,10.20
2023-01-26T05:22:04.990Z,11.47
2023-01-26T05:24:35.945Z,11.37
2023-01-26T05:27:25.605Z,11.20
2023-01-26T05:30:00.411Z,10.70
2023-01-26T05:32:33.714Z,11.30
2023-01-26T05:35:08.124Z,10.77
2023-01-26T05:37:38.912Z,11.73
2023-01-26T05:40:12.354Z,10.90
2023-01-26T05:42:44.471Z,11.47
2023-01-26T05:45:18.028Z,12.07
2023-01-26T05:47:49.027Z,11.60
2023-01-26T05:50:19.616Z,11.50
2023-01-26T05:52:50.848Z,11.00
2023-01-26T05:55:24.332Z,11.37
2023-01-26T05:57:54.544Z,10.33
2023-01-26T06:00:25.813Z,10.50
2023-01-26T06:02:56.809Z,10.03
2023-01-26T06:05:27.342Z,10.23
2023-01-26T06:07:57.893Z,10.07
2023-01-26T06:10:28.294Z,9.10
2023-01-26T06:13:01.712Z,9.73
2023-01-26T06:15:32.226Z,9.50
2023-01-26T06:18:02.842Z,10.10
2023-01-26T06:20:34.339Z,10.40
2023-01-26T06:23:05.714Z,9.27
2023-01-26T06:25:36.270Z,10.30
2023-01-26T06:28:07.309Z,10.43
2023-01-26T06:30:42.437Z,11.00
2023-01-26T06:33:13.745Z,10.47
2023-01-26T06:35:46.341Z,9.83
2023-01-26T06:38:16.769Z,9.13
2023-01-26T06:40:51.022Z,9.50
2023-01-26T06:43:23.642Z,9.30
2023-01-26T06:45:55.782Z,8.67
2023-01-26T06:48:36.787Z,9.23
2023-01-26T06:51:20.355Z,9.70
2023-01-26T06:53:58.523Z,8.80
2023-01-26T06:56:29.008Z,10.07
2023-01-26T06:58:59.480Z,10.33
2023-01-26T07:01:33.594Z,11.00
2023-01-26T07:04:07.867Z,9.13
2023-01-26T07:06:39.829Z,8.97
2023-01-26T07:09:11.572Z,9.27
2023-01-26T07:11:46.812Z,8.83
2023-01-26T07:14:17.545Z,7.47
2023-01-26T07:16:48.475Z,7.90
2023-01-26T07:19:20.362Z,8.63
2023-01-26T07:21:50.910Z,9.23
2023-01-26T07:24:24.251Z,8.43
2023-01-26T07:26:56.319Z,8.63
2023-01-26T07:29:30.314Z,8.97
2023-01-26T07:31:59.401Z,8.20
2023-01-26T07:34:30.893Z,8.17
2023-01-26T07:37:05.993Z,8.27
2023-01-26T07:39:37.152Z,8.77
2023-01-26T07:42:09.239Z,8.00
2023-01-26T07:44:39.893Z,8.13
2023-01-26T07:47:11.951Z,8.43
2023-01-26T07:49:43.481Z,8.93
2023-01-26T07:52:16.035Z,8.73
2023-01-26T07:54:46.840Z,8.60
2023-01-26T07:57:19.022Z,7.73
2023-01-26T07:59:54.096Z,8.20
2023-01-26T08:02:26.329Z,9.17
2023-01-26T08:04:59.675Z,7.00
2023-01-26T08:07:32.026Z,7.90
2023-01-26T08:10:04.924Z,8.30
2023-01-26T08:12:40.860Z,8.00
2023-01-26T08:15:11.266Z,9.50
2023-01-26T08:17:42.874Z,8.40
2023-01-26T08:20:15.598Z,8.73
2023-01-26T08:22:48.696Z,8.83
2023-01-26T08:25:23.001Z,7.73
2023-01-26T08:27:56.484Z,8.50
2023-01-26T08:30:27.725Z,8.03
2023-01-26T08:33:00.769Z,7.73
2023-01-26T08:35:34.939Z,7.43
2023-01-26T08:38:05.861Z,7.77
2023-01-26T08:40:38.372Z,7.83
2023-01-26T08:43:10.894Z,7.63
2023-01-26T08:45:43.886Z,8.70
2023-01-26T08:48:18.564Z,8.67
2023-01-26T08:50:49.937Z,8.13
2023-01-26T08:53:21.692Z,8.37
2023-01-26T08:55:53.356Z,7.93
2023-01-26T08:58:23.839Z,9.50
2023-01-26T09:00:55.615Z,8.60
2023-01-26T09:03:26.137Z,8.47
2023-01-26T09:06:03.687Z,8.10
2023-01-26T09:08:34.160Z,8.00
2023-01-26T09:11:07.302Z,8.33
2023-01-26T09:13:40.575Z,8.70
2023-01-26T09:16:20.741Z,8.33
2023-01-26T09:18:53.509Z,9.07
2023-01-26T09:21:26.616Z,9.20
2023-01-26T09:24:00.472Z,8.47
2023-01-26T09:26:33.820Z,8.37
2023-01-26T09:29:05.330Z,8.37
2023-01-26T09:31:36.029Z,9.07
2023-01-26T09:34:09.061Z,8.30
2023-01-26T09:36:41.527Z,10.00
2023-01-26T09:39:13.212Z,8.73
2023-01-26T09:42:05.003Z,8.43
2023-01-26T09:44:39.651Z,8.67
2023-01-26T09:47:26.940Z,9.03
2023-01-26T09:50:17.305Z,9.40
2023-01-26T09:53:05.303Z,8.93
2023-01-26T09:55:36.389Z,9.63
2023-01-26T09:58:09.718Z,9.60
2023-01-26T10:00:49.313Z,9.50
2023-01-26T10:03:46.596Z,9.63
2023-01-26T10:06:21.668Z,9.40
2023-01-26T10:08:52.216Z,10.03
2023-01-26T10:11:44.009Z,10.37
2023-01-26T10:14:40.758Z,10.33
2023-01-26T10:17:20.409Z,9.97
2023-01-26T10:19:54.383Z,9.37
2023-01-26T10:22:27.866Z,8.70
2023-01-26T10:25:00.837Z,8.20
2023-01-26T10:27:32.715Z,8.00
2023-01-26T10:30:03.294Z,9.63
2023-01-26T10:32:35.454Z,8.63
2023-01-26T10:35:09.611Z,8.47
2023-01-26T10:37:40.199Z,9.83
2023-01-26T10:40:12.831Z,9.00
2023-01-26T10:42:44.889Z,10.50
2023-01-26T10:45:27.983Z,9.63
2023-01-26T10:48:06.919Z,8.93
2023-01-26T10:50:37.510Z,9.40
2023-01-26T10:53:09.662Z,9.07
2023-01-26T10:55:41.632Z,8.53
2023-01-26T10:58:40.997Z,9.90
2023-01-26T11:01:16.603Z,10.30
2023-01-26T11:04:08.972Z,9.50
2023-01-26T11:06:43.021Z,9.37
2023-01-26T11:09:19.698Z,8.53
2023-01-26T11:11:58.526Z,8.07
2023-01-26T11:14:30.640Z,7.47
2023-01-26T11:17:04.399Z,7.50
2023-01-26T11:19:49.922Z,7.93
2023-01-26T11:22:38.766Z,8.23
2023-01-26T11:25:32.033Z,8.27
2023-01-26T11:28:08.086Z,8.70
2023-01-26T11:31:05.737Z,8.53
2023-01-26T11:33:45.318Z,8.67
2023-01-26T11:36:43.353Z,7.93
2023-01-26T11:39:46.207Z,7.53
2023-01-26T11:42:28.920Z,8.40
2023-01-26T11:45:17.365Z,5.73
2023-01-26T11:47:56.308Z,7.13
2023-01-26T11:50:48.559Z,7.40
2023-01-26T11:53:57.132Z,7.10
2023-01-26T11:57:02.525Z,7.47
2023-01-26T11:59:44.962Z,7.90
2023-01-26T12:02:34.751Z,7.20
2023-01-26T12:05:23.272Z,7.10
2023-01-26T12:08:20.701Z,6.93
2023-01-26T12:11:25.182Z,7.20
2023-01-26T12:14:17.048Z,8.20
2023-01-26T12:17:02.133Z,7.30
2023-01-26T12:19:55.207Z,7.90
2023-01-26T12:22:42.238Z,6.83
2023-01-26T12:25:38.389Z,7.27
2023-01-26T12:28:21.253Z,6.77
2023-01-26T12:31:23.811Z,6.97
2023-01-26T12:33:59.443Z,7.10
2023-01-26T12:36:49.179Z,6.13
2023-01-26T12:39:31.766Z,6.90
2023-01-26T12:42:29.405Z,7.87
2023-01-26T12:45:07.117Z,6.80
2023-01-26T12:47:49.382Z,6.43
2023-01-26T12:50:28.752Z,7.67
2023-01-26T12:53:21.546Z,6.43
2023-01-26T12:55:57.726Z,5.93
2023-01-26T12:58:34.696Z,5.97
2023-01-26T13:01:08.644Z,6.30
2023-01-26T13:03:43.035Z,6.00
2023-01-26T13:06:19.406Z,6.10
2023-01-26T13:09:05.979Z,6.83
2023-01-26T13:11:52.606Z,6.43
2023-01-26T13:14:47.044Z,7.30
2023-01-26T13:17:20.649Z,6.87
2023-01-26T13:19:57.537Z,6.70
2023-01-26T13:22:39.795Z,6.77
2023-01-26T13:25:19.557Z,7.03
2023-01-26T13:28:04.581Z,7.63
2023-01-26T13:30:47.440Z,7.00
2023-01-26T13:33:22.272Z,7.23
2023-01-26T13:35:55.331Z,7.40
2023-01-26T13:38:37.885Z,7.27
2023-01-26T13:41:14.411Z,7.53
2023-01-26T13:43:47.887Z,8.00
2023-01-26T13:46:29.782Z,8.70
2023-01-26T13:49:01.699Z,8.53
2023-01-26T13:51:36.509Z,8.33
2023-01-26T13:54:10.854Z,8.93
2023-01-26T13:56:44.057Z,8.57
2023-01-26T13:59:17.682Z,8.43
2023-01-26T14:01:52.136Z,10.13
2023-01-26T14:04:24.960Z,9.20
2023-01-26T14:07:02.328Z,8.47
2023-01-26T14:09:35.839Z,9.60
2023-01-26T14:12:09.083Z,8.40
2023-01-26T14:14:41.691Z,8.63
2023-01-26T14:17:30.300Z,8.00
2023-01-26T14:20:03.580Z,8.13
2023-01-26T14:22:34.156Z,8.30
2023-01-26T14:25:07.696Z,8.10
2023-01-26T14:27:43.196Z,8.60
2023-01-26T14:30:36.761Z,8.77
2023-01-26T14:33:10.726Z,8.53
2023-01-26T14:35:45.360Z,8.03
2023-01-26T14:38:20.165Z,8.43
2023-01-26T14:40:57.620Z,8.33
2023-01-26T14:43:29.771Z,8.60
2023-01-26T14:46:03.640Z,9.37
2023-01-26T14:48:37.143Z,8.87
2023-01-26T14:51:10.942Z,10.40
2023-01-26T14:53:41.672Z,9.60
2023-01-26T14:56:21.260Z,9.80
2023-01-26T14:58:55.137Z,10.13
2023-01-26T15:01:27.033Z,11.57
2023-01-26T15:04:06.501Z,12.47
2023-01-26T15:06:37.126Z,11.87
2023-01-26T15:09:28.497Z,12.90
2023-01-26T15:12:18.942Z,11.90
2023-01-26T15:14:54.844Z,11.83
2023-01-26T15:17:31.324Z,11.77
2023-01-26T15:20:02.244Z,12.97
2023-01-26T15:22:32.995Z,11.97
2023-01-26T15:25:21.542Z,12.63
2023-01-26T15:27:58.794Z,12.80
2023-01-26T15:30:33.857Z,13.53
2023-01-26T15:33:05.912Z,12.83
2023-01-26T15:35:38.000Z,12.40
2023-01-26T15:38:13.441Z,12.93
2023-01-26T15:40:49.694Z,14.17
2023-01-26T15:43:23.776Z,14.13
2023-01-26T15:46:01.167Z,13.40
2023-01-26T15:48:34.415Z,13.20
2023-01-26T15:51:05.073Z,13.17
2023-01-26T15:53:37.109Z,12.87
2023-01-26T15:56:11.569Z,13.40
2023-01-26T15:58:44.060Z,13.17
2023-01-26T16:01:17.446Z,14.03
2023-01-26T16:03:49.741Z,13.23
2023-01-26T16:06:29.724Z,14.43
2023-01-26T16:09:00.602Z,13.47
2023-01-26T16:11:34.244Z,13.73
2023-01-26T16:14:04.838Z,13.77
2023-01-26T16:16:35.427Z,11.80
2023-01-26T16:19:07.701Z,13.30
2023-01-26T16:21:41.360Z,13.30
2023-01-26T16:24:12.322Z,13.20
2023-01-26T16:26:43.043Z,13.33
2023-01-26T16:29:13.687Z,12.27
2023-01-26T16:31:44.383Z,11.63
2023-01-26T16:34:15.044Z,11.17
2023-01-26T16:36:47.035Z,11.13
2023-01-26T16:39:17.574Z,11.40
2023-01-26T16:41:49.010Z,10.87
2023-01-26T16:44:24.396Z,11.37
2023-01-26T16:46:55.465Z,9.87
2023-01-26T16:49:26.902Z,9.93
2023-01-26T16:51:57.342Z,11.10
2023-01-26T16:54:28.250Z,11.03
2023-01-26T16:56:58.867Z,11.53
2023-01-26T16:59:29.825Z,11.87
2023-01-26T17:02:00.675Z,13.67
2023-01-26T17:04:31.251Z,13.60
2023-01-26T17:07:01.826Z,13.17
2023-01-26T17:09:33.546Z,13.37
2023-01-26T17:12:03.994Z,13.73
2023-01-26T17:14:36.176Z,13.73
2023-01-26T17:17:07.105Z,13.17
2023-01-26T17:19:37.771Z,12.93
2023-01-26T17:22:08.355Z,11.77
2023-01-26T17:24:40.049Z,11.57
2023-01-26T17:27:12.779Z,11.50
2023-01-26T17:29:44.269Z,12.57
2023-01-26T17:32:16.364Z,10.87
2023-01-26T17:34:49.002Z,12.90
2023-01-26T17:37:21.555Z,11.60
2023-01-26T17:39:52.559Z,14.20
2023-01-26T17:42:25.378Z,11.90
2023-01-26T17:44:58.194Z,14.10
2023-01-26T17:47:30.768Z,12.90
2023-01-26T17:50:03.349Z,12.63
2023-01-26T17:52:36.509Z,13.93
2023-01-26T17:55:07.470Z,14.67
2023-01-26T17:57:37.975Z,14.97
2023-01-26T18:00:09.309Z,14.43
2023-01-26T18:02:40.810Z,15.13
2023-01-26T18:05:14.341Z,13.57
2023-01-26T18:07:45.170Z,14.97
2023-01-26T18:10:15.733Z,15.37
2023-01-26T18:12:47.559Z,14.50
2023-01-26T18:15:18.534Z,14.27
2023-01-26T18:17:49.060Z,14.40
2023-01-26T18:20:20.684Z,13.70
2023-01-26T18:22:51.152Z,14.93
2023-01-26T18:25:21.687Z,14.03
2023-01-26T18:27:53.854Z,12.53
2023-01-26T18:30:24.522Z,14.27
2023-01-26T18:32:57.160Z,12.17
2023-01-26T18:35:29.355Z,12.97
2023-01-26T18:38:02.772Z,12.87
2023-01-26T18:40:33.695Z,11.93
2023-01-26T18:43:04.138Z,12.83
2023-01-26T18:45:36.275Z,13.93
2023-01-26T18:48:07.667Z,12.33
2023-01-26T18:50:39.004Z,13.13
2023-01-26T18:53:09.876Z,13.87
2023-01-26T18:55:40.512Z,14.37
2023-01-26T18:58:11.535Z,13.13
2023-01-26T19:00:43.069Z,13.33
2023-01-26T19:03:13.487Z,13.20
2023-01-26T19:05:43.996Z,14.60
2023-01-26T19:08:14.481Z,13.20
2023-01-26T19:10:46.429Z,12.50
2023-01-26T19:13:17.436Z,13.77
2023-01-26T19:15:51.225Z,13.77
2023-01-26T19:18:23.627Z,14.57
2023-01-26T19:20:59.283Z,13.70
2023-01-26T19:23:34.075Z,14.00
2023-01-26T19:26:12.706Z,14.73
2023-01-26T19:28:50.746Z,16.13
2023-01-26T19:31:23.355Z,16.00
2023-01-26T19:33:55.981Z,14.50
2023-01-26T19:36:27.911Z,15.57
2023-01-26T19:38:58.348Z,14.13
2023-01-26T19:41:30.401Z,13.57
2023-01-26T19:44:01.458Z,13.80
2023-01-26T19:46:33.519Z,14.03
2023-01-26T19:49:07.051Z,13.30
2023-01-26T19:51:39.275Z,13.93
2023-01-26T19:54:10.150Z,13.07
2023-01-26T19:56:40.942Z,12.23
2023-01-26T19:59:12.972Z,13.10
2023-01-26T20:01:43.394Z,14.43
2023-01-26T20:04:15.635Z,15.10
2023-01-26T20:06:49.259Z,15.53
2023-01-26T20:09:19.804Z,14.50
2023-01-26T20:11:50.580Z,14.30
2023-01-26T20:14:21.164Z,14.57
2023-01-26T20:16:51.707Z,13.93
2023-01-26T20:19:22.439Z,14.20
2023-01-26T20:21:54.412Z,13.03
2023-01-26T20:24:29.113Z,13.70
2023-01-26T20:26:59.483Z,13.60
2023-01-26T20:29:30.255Z,13.70
2023-01-26T20:32:00.861Z,12.90
2023-01-26T20:34:31.584Z,13.40
2023-01-26T20:37:02.193Z,12.33
2023-01-26T20:39:32.920Z,13.90
2023-01-26T20:42:04.094Z,13.97
2023-01-26T20:44:34.659Z,13.70
2023-01-26T20:47:05.770Z,13.57
2023-01-26T20:49:37.327Z,11.97
2023-01-26T20:52:07.878Z,12.83
2023-01-26T20:54:39.870Z,14.33
2023-01-26T20:57:10.299Z,13.53
2023-01-26T20:59:41.095Z,13.40
2023-01-26T21:02:16.378Z,13.90
2023-01-26T21:04:47.545Z,13.60
2023-01-26T21:07:21.322Z,13.50
2023-01-26T21:09:51.812Z,13.17
2023-01-26T21:12:22.281Z,14.70
2023-01-26T21:14:55.103Z,13.97
2023-01-26T21:17:30.464Z,13.90
2023-01-26T21:20:02.560Z,14.20
2023-01-26T21:22:33.142Z,14.60
2023-01-26T21:25:07.404Z,14.83
2023-01-26T21:27:38.479Z,14.50
2023-01-26T21:30:12.756Z,13.47
2023-01-26T21:32:43.767Z,13.10
2023-01-26T21:35:16.197Z,13.97
2023-01-26T21:37:47.281Z,13.43
2023-01-26T21:40:18.889Z,12.83
2023-01-26T21:42:49.350Z,12.30
2023-01-26T21:45:38.032Z,11.83
2023-01-26T21:48:26.742Z,12.63
2023-01-26T21:51:17.542Z,12.23
2023-01-26T21:53:48.226Z,13.33
2023-01-26T21:56:18.993Z,12.33
2023-01-26T21:58:57.444Z,11.70
2023-01-26T22:01:29.421Z,12.70
2023-01-26T22:04:02.328Z,12.00
2023-01-26T22:06:36.537Z,12.17
2023-01-26T22:09:12.286Z,12.37
2023-01-26T22:11:45.595Z,12.47
2023-01-26T22:14:22.318Z,11.53
2023-01-26T22:16:52.805Z,10.90
2023-01-26T22:19:23.827Z,11.37
2023-01-26T22:21:54.393Z,10.80
2023-01-26T22:24:25.054Z,11.53
2023-01-26T22:26:56.061Z,10.10
2023-01-26T22:29:26.850Z,10.70
2023-01-26T22:31:57.427Z,10.47
2023-01-26T22:34:27.819Z,9.47
2023-01-26T22:36:58.382Z,10.47
2023-01-26T22:39:28.801Z,10.20
2023-01-26T22:41:59.930Z,11.13
2023-01-26T22:44:31.167Z,10.77
2023-01-26T22:47:01.732Z,10.57
2023-01-26T22:49:34.441Z,10.20
2023-01-26T22:52:06.543Z,9.70
2023-01-26T22:54:37.205Z,10.47
2023-01-26T22:57:09.200Z,10.90
2023-01-26T22:59:41.720Z,10.53
2023-01-26T23:02:12.670Z,9.50
2023-01-26T23:04:43.110Z,10.67
2023-01-26T23:07:14.052Z,11.47
2023-01-26T23:09:46.031Z,10.07
2023-01-26T23:12:19.000Z,9.93
2023-01-26T23:14:51.328Z,9.97
2023-01-26T23:17:22.260Z,9.43
2023-01-26T23:19:54.700Z,9.10
2023-01-26T23:22:27.753Z,9.47
2023-01-26T23:25:17.502Z,10.13
2023-01-26T23:27:47.896Z,8.37
2023-01-26T23:30:18.815Z,9.03
2023-01-26T23:32:49.318Z,8.87
2023-01-26T23:35:26.894Z,9.40
2023-01-26T23:37:57.285Z,8.97
2023-01-26T23:40:27.769Z,8.90
2023-01-26T23:43:14.557Z,9.60
2023-01-26T23:45:31.481Z,10.60
2023-01-26T23:48:02.149Z,10.03
2023-01-26T23:50:32.902Z,9.77
2023-01-26T23:53:03.536Z,9.70
2023-01-26T23:55:34.733Z,8.93
2023-01-26T23:58:05.264Z,9.20
